sensor_id;sensor_type;location;lat;lon;timestamp;P1;durP1;ratioP1;P2;durP2;ratioP2
29238;SDS011;16267;48.194;11.546;2023-12-20T00:02:14;2.00;;;0.88;;
29238;SDS011;16267;48.194;11.546;2023-12-20T00:04:43;2.65;;;1.17;;
29238;SDS011;16267;48.194;11.546;2023-12-20T00:07:08;3.00;;;1.05;;
29238;SDS011;16267;48.194;11.546;2023-12-20T00:09:47;3.05;;;1.40;;
29238;SDS011;16267;48.194;11.546;2023-12-20T00:12:22;3.42;;;1.25;;
29238;SDS011;16267;48.194;11.546;2023-12-20T00:14:48;3.33;;;1.10;;
29238;SDS011;16267;48.194;11.546;2023-12-20T00:17:14;1.98;;;1.15;;
29238;SDS011;16267;48.194;11.546;2023-12-20T00:19:43;2.47;;;1.40;;
29238;SDS011;16267;48.194;11.546;2023-12-20T00:22:12;2.17;;;1.42;;
29238;SDS011;16267;48.194;11.546;2023-12-20T00:24:37;3.65;;;1.15;;
29238;SDS011;16267;48.194;11.546;2023-12-20T00:27:03;2.83;;;1.10;;
29238;SDS011;16267;48.194;11.546;2023-12-20T00:29:29;1.25;;;0.80;;
29238;SDS011;16267;48.194;11.546;2023-12-20T00:32:06;2.25;;;1.13;;
29238;SDS011;16267;48.194;11.546;2023-12-20T00:34:35;2.10;;;1.00;;
29238;SDS011;16267;48.194;11.546;2023-12-20T00:37:01;1.75;;;0.80;;
29238;SDS011;16267;48.194;11.546;2023-12-20T00:39:27;2.40;;;1.17;;
29238;SDS011;16267;48.194;11.546;2023-12-20T00:41:53;1.92;;;0.90;;
29238;SDS011;16267;48.194;11.546;2023-12-20T00:44:18;1.77;;;1.10;;
29238;SDS011;16267;48.194;11.546;2023-12-20T00:46:44;2.55;;;1.00;;
29238;SDS011;16267;48.194;11.546;2023-12-20T00:52:10;1.55;;;1.05;;
29238;SDS011;16267;48.194;11.546;2023-12-20T00:54:39;1.90;;;0.90;;
29238;SDS011;16267;48.194;11.546;2023-12-20T00:57:05;1.65;;;1.10;;
29238;SDS011;16267;48.194;11.546;2023-12-20T00:59:30;1.55;;;0.75;;
29238;SDS011;16267;48.194;11.546;2023-12-20T01:01:56;2.05;;;0.90;;
29238;SDS011;16267;48.194;11.546;2023-12-20T01:04:22;0.88;;;0.73;;
29238;SDS011;16267;48.194;11.546;2023-12-20T01:06:48;1.23;;;0.63;;
29238;SDS011;16267;48.194;11.546;2023-12-20T01:09:14;1.85;;;0.95;;
29238;SDS011;16267;48.194;11.546;2023-12-20T01:11:40;2.03;;;0.75;;
29238;SDS011;16267;48.194;11.546;2023-12-20T01:14:06;1.55;;;0.70;;
29238;SDS011;16267;48.194;11.546;2023-12-20T01:16:31;0.82;;;0.68;;
29238;SDS011;16267;48.194;11.546;2023-12-20T01:18:57;1.48;;;0.80;;
29238;SDS011;16267;48.194;11.546;2023-12-20T01:21:23;1.73;;;0.88;;
29238;SDS011;16267;48.194;11.546;2023-12-20T01:23:49;2.25;;;0.82;;
29238;SDS011;16267;48.194;11.546;2023-12-20T01:26:18;0.88;;;0.77;;
29238;SDS011;16267;48.194;11.546;2023-12-20T01:28:44;1.10;;;0.68;;
29238;SDS011;16267;48.194;11.546;2023-12-20T01:31:10;2.05;;;1.10;;
29238;SDS011;16267;48.194;11.546;2023-12-20T01:33:35;1.02;;;0.77;;
29238;SDS011;16267;48.194;11.546;2023-12-20T01:36:01;1.10;;;0.70;;
29238;SDS011;16267;48.194;11.546;2023-12-20T01:38:28;1.67;;;0.60;;
29238;SDS011;16267;48.194;11.546;2023-12-20T01:40:54;1.23;;;0.70;;
29238;SDS011;16267;48.194;11.546;2023-12-20T01:43:20;1.10;;;0.80;;
29238;SDS011;16267;48.194;11.546;2023-12-20T01:45:47;1.95;;;0.82;;
29238;SDS011;16267;48.194;11.546;2023-12-20T01:48:13;1.63;;;0.70;;
29238;SDS011;16267;48.194;11.546;2023-12-20T01:50:41;5.75;;;0.70;;
29238;SDS011;16267;48.194;11.546;2023-12-20T01:53:09;1.10;;;0.60;;
29238;SDS011;16267;48.194;11.546;2023-12-20T01:55:37;1.33;;;0.60;;
29238;SDS011;16267;48.194;11.546;2023-12-20T01:58:07;2.10;;;0.80;;
29238;SDS011;16267;48.194;11.546;2023-12-20T02:00:35;1.33;;;0.60;;
29238;SDS011;16267;48.194;11.546;2023-12-20T02:03:02;0.68;;;0.68;;
29238;SDS011;16267;48.194;11.546;2023-12-20T02:05:32;1.00;;;0.60;;
29238;SDS011;16267;48.194;11.546;2023-12-20T02:08:00;2.13;;;1.00;;
29238;SDS011;16267;48.194;11.546;2023-12-20T02:10:26;2.00;;;0.85;;
29238;SDS011;16267;48.194;11.546;2023-12-20T02:12:52;1.02;;;0.60;;
29238;SDS011;16267;48.194;11.546;2023-12-20T02:15:18;0.70;;;0.50;;
29238;SDS011;16267;48.194;11.546;2023-12-20T02:17:44;1.35;;;0.70;;
29238;SDS011;16267;48.194;11.546;2023-12-20T02:20:11;1.10;;;0.80;;
29238;SDS011;16267;48.194;11.546;2023-12-20T02:22:39;1.90;;;0.90;;
29238;SDS011;16267;48.194;11.546;2023-12-20T02:25:05;1.17;;;0.60;;
29238;SDS011;16267;48.194;11.546;2023-12-20T02:27:31;0.82;;;0.50;;
29238;SDS011;16267;48.194;11.546;2023-12-20T02:29:57;0.85;;;0.60;;
29238;SDS011;16267;48.194;11.546;2023-12-20T02:32:23;0.52;;;0.50;;
29238;SDS011;16267;48.194;11.546;2023-12-20T02:34:54;0.93;;;0.70;;
29238;SDS011;16267;48.194;11.546;2023-12-20T02:37:23;1.92;;;0.65;;
29238;SDS011;16267;48.194;11.546;2023-12-20T02:39:49;1.10;;;0.40;;
29238;SDS011;16267;48.194;11.546;2023-12-20T02:42:15;1.02;;;0.63;;
29238;SDS011;16267;48.194;11.546;2023-12-20T02:44:41;1.02;;;0.65;;
29238;SDS011;16267;48.194;11.546;2023-12-20T02:47:06;1.48;;;0.55;;
29238;SDS011;16267;48.194;11.546;2023-12-20T02:53:45;2.10;;;0.50;;
29238;SDS011;16267;48.194;11.546;2023-12-20T02:56:14;0.88;;;0.40;;
29238;SDS011;16267;48.194;11.546;2023-12-20T02:58:40;0.70;;;0.40;;
29238;SDS011;16267;48.194;11.546;2023-12-20T03:01:06;0.68;;;0.47;;
29238;SDS011;16267;48.194;11.546;2023-12-20T03:10:19;0.45;;;0.32;;
29238;SDS011;16267;48.194;11.546;2023-12-20T03:12:45;0.50;;;0.30;;
29238;SDS011;16267;48.194;11.546;2023-12-20T03:15:10;1.10;;;0.80;;
29238;SDS011;16267;48.194;11.546;2023-12-20T03:17:36;0.82;;;0.35;;
29238;SDS011;16267;48.194;11.546;2023-12-20T03:20:02;0.68;;;0.30;;
29238;SDS011;16267;48.194;11.546;2023-12-20T03:22:28;0.40;;;0.30;;
29238;SDS011;16267;48.194;11.546;2023-12-20T03:27:25;1.35;;;0.40;;
29238;SDS011;16267;48.194;11.546;2023-12-20T03:29:50;0.28;;;0.28;;
29238;SDS011;16267;48.194;11.546;2023-12-20T03:32:16;0.30;;;0.30;;
29238;SDS011;16267;48.194;11.546;2023-12-20T03:34:42;0.65;;;0.35;;
29238;SDS011;16267;48.194;11.546;2023-12-20T03:37:07;0.30;;;0.30;;
29238;SDS011;16267;48.194;11.546;2023-12-20T03:39:33;0.70;;;0.50;;
29238;SDS011;16267;48.194;11.546;2023-12-20T03:41:59;0.30;;;0.30;;
29238;SDS011;16267;48.194;11.546;2023-12-20T03:46:54;0.75;;;0.22;;
29238;SDS011;16267;48.194;11.546;2023-12-20T03:49:20;0.57;;;0.50;;
29238;SDS011;16267;48.194;11.546;2023-12-20T03:51:46;0.30;;;0.30;;
29238;SDS011;16267;48.194;11.546;2023-12-20T03:54:12;0.55;;;0.35;;
29238;SDS011;16267;48.194;11.546;2023-12-20T03:56:37;1.05;;;0.40;;
29238;SDS011;16267;48.194;11.546;2023-12-20T03:59:03;0.30;;;0.28;;
29238;SDS011;16267;48.194;11.546;2023-12-20T04:01:29;0.40;;;0.40;;
29238;SDS011;16267;48.194;11.546;2023-12-20T04:03:54;0.45;;;0.30;;
29238;SDS011;16267;48.194;11.546;2023-12-20T04:06:20;0.93;;;0.50;;
29238;SDS011;16267;48.194;11.546;2023-12-20T04:08:46;0.50;;;0.40;;
29238;SDS011;16267;48.194;11.546;2023-12-20T04:11:12;0.77;;;0.40;;
29238;SDS011;16267;48.194;11.546;2023-12-20T04:17:19;0.60;;;0.30;;
29238;SDS011;16267;48.194;11.546;2023-12-20T04:19:47;6.30;;;0.60;;
29238;SDS011;16267;48.194;11.546;2023-12-20T04:26:03;0.68;;;0.40;;
29238;SDS011;16267;48.194;11.546;2023-12-20T04:28:29;1.17;;;0.60;;
29238;SDS011;16267;48.194;11.546;2023-12-20T04:30:55;1.17;;;0.55;;
29238;SDS011;16267;48.194;11.546;2023-12-20T04:33:21;0.60;;;0.40;;
29238;SDS011;16267;48.194;11.546;2023-12-20T04:35:49;0.63;;;0.60;;
29238;SDS011;16267;48.194;11.546;2023-12-20T04:38:14;0.50;;;0.40;;
29238;SDS011;16267;48.194;11.546;2023-12-20T04:40:40;1.58;;;0.95;;
29238;SDS011;16267;48.194;11.546;2023-12-20T04:43:06;0.40;;;0.40;;
29238;SDS011;16267;48.194;11.546;2023-12-20T04:45:33;0.50;;;0.40;;
29238;SDS011;16267;48.194;11.546;2023-12-20T04:47:59;1.27;;;0.50;;
29238;SDS011;16267;48.194;11.546;2023-12-20T04:50:27;0.93;;;0.70;;
29238;SDS011;16267;48.194;11.546;2023-12-20T04:52:53;1.48;;;0.52;;
29238;SDS011;16267;48.194;11.546;2023-12-20T04:55:18;0.80;;;0.60;;
29238;SDS011;16267;48.194;11.546;2023-12-20T04:57:45;2.78;;;0.60;;
29238;SDS011;16267;48.194;11.546;2023-12-20T05:00:11;1.33;;;0.70;;
29238;SDS011;16267;48.194;11.546;2023-12-20T05:02:39;1.75;;;0.73;;
29238;SDS011;16267;48.194;11.546;2023-12-20T05:05:05;1.25;;;0.85;;
29238;SDS011;16267;48.194;11.546;2023-12-20T05:07:31;1.25;;;0.80;;
29238;SDS011;16267;48.194;11.546;2023-12-20T05:09:57;0.65;;;0.63;;
29238;SDS011;16267;48.194;11.546;2023-12-20T05:12:23;1.73;;;0.80;;
29238;SDS011;16267;48.194;11.546;2023-12-20T05:14:49;1.48;;;0.90;;
29238;SDS011;16267;48.194;11.546;2023-12-20T05:17:16;1.73;;;0.90;;
29238;SDS011;16267;48.194;11.546;2023-12-20T05:19:42;1.17;;;0.95;;
29238;SDS011;16267;48.194;11.546;2023-12-20T05:22:08;3.17;;;0.90;;
29238;SDS011;16267;48.194;11.546;2023-12-20T05:24:34;2.00;;;0.98;;
29238;SDS011;16267;48.194;11.546;2023-12-20T05:27:00;1.10;;;0.90;;
29238;SDS011;16267;48.194;11.546;2023-12-20T05:29:26;0.98;;;0.70;;
29238;SDS011;16267;48.194;11.546;2023-12-20T05:31:52;1.42;;;0.88;;
29238;SDS011;16267;48.194;11.546;2023-12-20T05:34:17;1.15;;;0.85;;
29238;SDS011;16267;48.194;11.546;2023-12-20T05:36:44;1.55;;;1.02;;
29238;SDS011;16267;48.194;11.546;2023-12-20T05:39:09;1.77;;;1.00;;
29238;SDS011;16267;48.194;11.546;2023-12-20T05:41:35;1.70;;;1.00;;
29238;SDS011;16267;48.194;11.546;2023-12-20T05:44:01;2.47;;;1.40;;
29238;SDS011;16267;48.194;11.546;2023-12-20T05:46:27;2.25;;;1.05;;
29238;SDS011;16267;48.194;11.546;2023-12-20T05:48:52;3.20;;;0.90;;
29238;SDS011;16267;48.194;11.546;2023-12-20T05:51:18;1.35;;;1.15;;
29238;SDS011;16267;48.194;11.546;2023-12-20T05:53:44;1.38;;;0.88;;
29238;SDS011;16267;48.194;11.546;2023-12-20T05:56:10;1.55;;;0.90;;
29238;SDS011;16267;48.194;11.546;2023-12-20T05:58:36;1.75;;;1.15;;
29238;SDS011;16267;48.194;11.546;2023-12-20T06:01:06;1.98;;;0.98;;
29238;SDS011;16267;48.194;11.546;2023-12-20T06:03:33;2.25;;;1.33;;
29238;SDS011;16267;48.194;11.546;2023-12-20T06:06:04;2.22;;;1.33;;
29238;SDS011;16267;48.194;11.546;2023-12-20T06:08:32;2.53;;;1.17;;
29238;SDS011;16267;48.194;11.546;2023-12-20T06:10:57;1.58;;;1.00;;
29238;SDS011;16267;48.194;11.546;2023-12-20T06:13:23;2.75;;;1.10;;
29238;SDS011;16267;48.194;11.546;2023-12-20T06:15:49;2.20;;;1.20;;
29238;SDS011;16267;48.194;11.546;2023-12-20T06:18:16;1.60;;;1.13;;
29238;SDS011;16267;48.194;11.546;2023-12-20T06:20:41;1.75;;;1.13;;
29238;SDS011;16267;48.194;11.546;2023-12-20T06:23:07;1.38;;;1.10;;
29238;SDS011;16267;48.194;11.546;2023-12-20T06:25:33;1.60;;;1.00;;
29238;SDS011;16267;48.194;11.546;2023-12-20T06:28:00;2.13;;;1.17;;
29238;SDS011;16267;48.194;11.546;2023-12-20T06:30:25;1.60;;;0.90;;
29238;SDS011;16267;48.194;11.546;2023-12-20T06:32:52;1.42;;;0.90;;
29238;SDS011;16267;48.194;11.546;2023-12-20T06:35:19;1.17;;;0.90;;
29238;SDS011;16267;48.194;11.546;2023-12-20T06:37:45;2.10;;;1.10;;
29238;SDS011;16267;48.194;11.546;2023-12-20T06:40:11;1.33;;;0.60;;
29238;SDS011;16267;48.194;11.546;2023-12-20T06:42:41;1.70;;;1.00;;
29238;SDS011;16267;48.194;11.546;2023-12-20T06:45:07;1.70;;;1.00;;
29238;SDS011;16267;48.194;11.546;2023-12-20T06:47:33;3.97;;;0.73;;
29238;SDS011;16267;48.194;11.546;2023-12-20T06:49:59;3.20;;;1.38;;
29238;SDS011;16267;48.194;11.546;2023-12-20T06:52:26;1.58;;;0.73;;
29238;SDS011;16267;48.194;11.546;2023-12-20T06:54:53;1.20;;;0.73;;
29238;SDS011;16267;48.194;11.546;2023-12-20T06:57:18;2.33;;;1.30;;
29238;SDS011;16267;48.194;11.546;2023-12-20T06:59:45;0.88;;;0.60;;
29238;SDS011;16267;48.194;11.546;2023-12-20T07:02:10;2.13;;;0.98;;
29238;SDS011;16267;48.194;11.546;2023-12-20T07:04:40;0.90;;;0.68;;
29238;SDS011;16267;48.194;11.546;2023-12-20T07:07:06;1.15;;;0.73;;
29238;SDS011;16267;48.194;11.546;2023-12-20T07:09:32;1.52;;;0.93;;
29238;SDS011;16267;48.194;11.546;2023-12-20T07:11:58;1.92;;;0.90;;
29238;SDS011;16267;48.194;11.546;2023-12-20T07:14:25;1.35;;;0.63;;
29238;SDS011;16267;48.194;11.546;2023-12-20T07:16:51;1.13;;;0.73;;
29238;SDS011;16267;48.194;11.546;2023-12-20T07:19:16;1.20;;;0.52;;
29238;SDS011;16267;48.194;11.546;2023-12-20T07:21:42;0.70;;;0.60;;
29238;SDS011;16267;48.194;11.546;2023-12-20T07:24:11;2.13;;;0.80;;
29238;SDS011;16267;48.194;11.546;2023-12-20T07:26:37;1.27;;;0.80;;
29238;SDS011;16267;48.194;11.546;2023-12-20T07:29:04;1.70;;;0.70;;
29238;SDS011;16267;48.194;11.546;2023-12-20T07:31:30;4.43;;;0.80;;
29238;SDS011;16267;48.194;11.546;2023-12-20T07:33:56;1.17;;;0.70;;
29238;SDS011;16267;48.194;11.546;2023-12-20T07:36:22;1.40;;;0.65;;
29238;SDS011;16267;48.194;11.546;2023-12-20T07:38:49;0.93;;;0.52;;
29238;SDS011;16267;48.194;11.546;2023-12-20T07:41:14;2.00;;;0.77;;
29238;SDS011;16267;48.194;11.546;2023-12-20T07:43:46;0.70;;;0.60;;
29238;SDS011;16267;48.194;11.546;2023-12-20T07:46:12;1.08;;;0.55;;
29238;SDS011;16267;48.194;11.546;2023-12-20T07:48:37;1.55;;;0.63;;
29238;SDS011;16267;48.194;11.546;2023-12-20T07:51:04;1.60;;;0.50;;
29238;SDS011;16267;48.194;11.546;2023-12-20T07:53:34;1.15;;;0.60;;
29238;SDS011;16267;48.194;11.546;2023-12-20T07:56:00;0.43;;;0.40;;
29238;SDS011;16267;48.194;11.546;2023-12-20T07:58:26;0.65;;;0.40;;
29238;SDS011;16267;48.194;11.546;2023-12-20T08:00:55;0.80;;;0.45;;
29238;SDS011;16267;48.194;11.546;2023-12-20T08:03:20;0.73;;;0.40;;
29238;SDS011;16267;48.194;11.546;2023-12-20T08:05:46;0.85;;;0.47;;
29238;SDS011;16267;48.194;11.546;2023-12-20T08:08:12;0.57;;;0.40;;
29238;SDS011;16267;48.194;11.546;2023-12-20T08:10:38;0.50;;;0.30;;
29238;SDS011;16267;48.194;11.546;2023-12-20T08:13:03;1.38;;;0.40;;
29238;SDS011;16267;48.194;11.546;2023-12-20T08:15:29;0.38;;;0.32;;
29238;SDS011;16267;48.194;11.546;2023-12-20T08:17:55;0.77;;;0.30;;
29238;SDS011;16267;48.194;11.546;2023-12-20T08:20:20;0.43;;;0.38;;
29238;SDS011;16267;48.194;11.546;2023-12-20T08:22:46;0.70;;;0.40;;
29238;SDS011;16267;48.194;11.546;2023-12-20T08:25:12;1.15;;;0.40;;
29238;SDS011;16267;48.194;11.546;2023-12-20T08:27:40;0.50;;;0.50;;
29238;SDS011;16267;48.194;11.546;2023-12-20T08:30:07;0.85;;;0.57;;
29238;SDS011;16267;48.194;11.546;2023-12-20T08:32:34;0.30;;;0.30;;
29238;SDS011;16267;48.194;11.546;2023-12-20T08:35:00;1.30;;;0.50;;
29238;SDS011;16267;48.194;11.546;2023-12-20T08:37:26;1.33;;;0.50;;
29238;SDS011;16267;48.194;11.546;2023-12-20T08:39:52;0.30;;;0.30;;
29238;SDS011;16267;48.194;11.546;2023-12-20T08:42:18;0.73;;;0.40;;
29238;SDS011;16267;48.194;11.546;2023-12-20T08:44:43;1.02;;;0.40;;
29238;SDS011;16267;48.194;11.546;2023-12-20T08:47:09;0.60;;;0.50;;
29238;SDS011;16267;48.194;11.546;2023-12-20T08:49:38;0.40;;;0.35;;
29238;SDS011;16267;48.194;11.546;2023-12-20T08:52:04;1.23;;;0.30;;
29238;SDS011;16267;48.194;11.546;2023-12-20T08:54:30;0.40;;;0.32;;
29238;SDS011;16267;48.194;11.546;2023-12-20T08:56:56;0.57;;;0.43;;
29238;SDS011;16267;48.194;11.546;2023-12-20T08:59:22;0.68;;;0.50;;
29238;SDS011;16267;48.194;11.546;2023-12-20T09:01:48;0.40;;;0.40;;
29238;SDS011;16267;48.194;11.546;2023-12-20T09:04:19;0.50;;;0.30;;
29238;SDS011;16267;48.194;11.546;2023-12-20T09:06:45;4.63;;;0.52;;
29238;SDS011;16267;48.194;11.546;2023-12-20T09:09:11;0.60;;;0.35;;
29238;SDS011;16267;48.194;11.546;2023-12-20T09:11:38;0.30;;;0.30;;
29238;SDS011;16267;48.194;11.546;2023-12-20T09:14:04;0.60;;;0.35;;
29238;SDS011;16267;48.194;11.546;2023-12-20T09:16:30;0.60;;;0.50;;
29238;SDS011;16267;48.194;11.546;2023-12-20T09:18:56;1.35;;;0.50;;
29238;SDS011;16267;48.194;11.546;2023-12-20T09:21:22;0.75;;;0.40;;
29238;SDS011;16267;48.194;11.546;2023-12-20T09:23:48;0.75;;;0.38;;
29238;SDS011;16267;48.194;11.546;2023-12-20T09:26:14;0.52;;;0.32;;
29238;SDS011;16267;48.194;11.546;2023-12-20T09:28:40;1.27;;;0.60;;
29238;SDS011;16267;48.194;11.546;2023-12-20T09:31:06;0.32;;;0.32;;
29238;SDS011;16267;48.194;11.546;2023-12-20T09:33:35;0.73;;;0.50;;
29238;SDS011;16267;48.194;11.546;2023-12-20T09:36:00;0.73;;;0.38;;
29238;SDS011;16267;48.194;11.546;2023-12-20T09:38:26;1.13;;;0.60;;
29238;SDS011;16267;48.194;11.546;2023-12-20T09:40:53;0.35;;;0.35;;
29238;SDS011;16267;48.194;11.546;2023-12-20T09:43:20;0.65;;;0.38;;
29238;SDS011;16267;48.194;11.546;2023-12-20T09:45:52;0.50;;;0.45;;
29238;SDS011;16267;48.194;11.546;2023-12-20T09:48:20;1.05;;;0.60;;
29238;SDS011;16267;48.194;11.546;2023-12-20T09:50:46;0.38;;;0.38;;
29238;SDS011;16267;48.194;11.546;2023-12-20T09:53:14;0.77;;;0.50;;
29238;SDS011;16267;48.194;11.546;2023-12-20T09:55:42;1.05;;;0.40;;
29238;SDS011;16267;48.194;11.546;2023-12-20T09:58:08;0.63;;;0.47;;
29238;SDS011;16267;48.194;11.546;2023-12-20T10:00:34;0.95;;;0.45;;
29238;SDS011;16267;48.194;11.546;2023-12-20T10:03:00;0.93;;;0.70;;
29238;SDS011;16267;48.194;11.546;2023-12-20T10:05:28;1.52;;;0.63;;
29238;SDS011;16267;48.194;11.546;2023-12-20T10:07:56;0.50;;;0.50;;
29238;SDS011;16267;48.194;11.546;2023-12-20T10:10:24;0.80;;;0.60;;
29238;SDS011;16267;48.194;11.546;2023-12-20T10:13:09;1.05;;;0.50;;
29238;SDS011;16267;48.194;11.546;2023-12-20T10:15:36;0.70;;;0.57;;
29238;SDS011;16267;48.194;11.546;2023-12-20T10:18:03;2.90;;;0.57;;
29238;SDS011;16267;48.194;11.546;2023-12-20T10:20:30;1.63;;;0.65;;
29238;SDS011;16267;48.194;11.546;2023-12-20T10:22:57;1.17;;;0.63;;
29238;SDS011;16267;48.194;11.546;2023-12-20T10:25:24;1.13;;;0.77;;
29238;SDS011;16267;48.194;11.546;2023-12-20T10:28:08;2.25;;;0.80;;
29238;SDS011;16267;48.194;11.546;2023-12-20T10:30:38;0.82;;;0.60;;
29238;SDS011;16267;48.194;11.546;2023-12-20T10:33:06;1.13;;;0.50;;
29238;SDS011;16267;48.194;11.546;2023-12-20T10:35:33;1.20;;;0.80;;
29238;SDS011;16267;48.194;11.546;2023-12-20T10:38:02;1.00;;;0.45;;
29238;SDS011;16267;48.194;11.546;2023-12-20T10:40:30;0.63;;;0.45;;
29238;SDS011;16267;48.194;11.546;2023-12-20T10:42:59;0.70;;;0.50;;
29238;SDS011;16267;48.194;11.546;2023-12-20T10:45:26;0.30;;;0.30;;
29238;SDS011;16267;48.194;11.546;2023-12-20T10:47:53;1.20;;;0.80;;
29238;SDS011;16267;48.194;11.546;2023-12-20T10:50:20;1.13;;;0.77;;
29238;SDS011;16267;48.194;11.546;2023-12-20T10:52:46;0.80;;;0.50;;
29238;SDS011;16267;48.194;11.546;2023-12-20T10:55:13;1.42;;;0.73;;
29238;SDS011;16267;48.194;11.546;2023-12-20T10:57:40;0.60;;;0.40;;
29238;SDS011;16267;48.194;11.546;2023-12-20T11:00:08;0.40;;;0.40;;
29238;SDS011;16267;48.194;11.546;2023-12-20T11:02:39;0.65;;;0.60;;
29238;SDS011;16267;48.194;11.546;2023-12-20T11:08:17;1.08;;;0.60;;
29238;SDS011;16267;48.194;11.546;2023-12-20T11:10:49;0.73;;;0.60;;
29238;SDS011;16267;48.194;11.546;2023-12-20T11:13:39;1.42;;;0.90;;
29238;SDS011;16267;48.194;11.546;2023-12-20T11:16:31;1.83;;;0.80;;
29238;SDS011;16267;48.194;11.546;2023-12-20T11:18:57;1.60;;;0.60;;
29238;SDS011;16267;48.194;11.546;2023-12-20T11:21:30;0.90;;;0.60;;
29238;SDS011;16267;48.194;11.546;2023-12-20T11:23:57;1.50;;;0.50;;
29238;SDS011;16267;48.194;11.546;2023-12-20T11:26:29;1.45;;;0.80;;
29238;SDS011;16267;48.194;11.546;2023-12-20T11:34:56;1.05;;;0.65;;
29238;SDS011;16267;48.194;11.546;2023-12-20T11:37:32;2.00;;;0.90;;
29238;SDS011;16267;48.194;11.546;2023-12-20T11:40:05;1.30;;;0.63;;
29238;SDS011;16267;48.194;11.546;2023-12-20T11:42:39;2.25;;;0.98;;
29238;SDS011;16267;48.194;11.546;2023-12-20T11:45:07;0.93;;;0.75;;
29238;SDS011;16267;48.194;11.546;2023-12-20T11:47:35;0.55;;;0.52;;
29238;SDS011;16267;48.194;11.546;2023-12-20T11:50:01;1.10;;;0.77;;
29238;SDS011;16267;48.194;11.546;2023-12-20T11:52:29;0.90;;;0.73;;
29238;SDS011;16267;48.194;11.546;2023-12-20T11:54:57;1.05;;;0.50;;
29238;SDS011;16267;48.194;11.546;2023-12-20T11:57:23;1.15;;;0.80;;
29238;SDS011;16267;48.194;11.546;2023-12-20T11:59:50;0.90;;;0.63;;
29238;SDS011;16267;48.194;11.546;2023-12-20T12:02:15;0.98;;;0.82;;
29238;SDS011;16267;48.194;11.546;2023-12-20T12:04:42;1.05;;;0.70;;
29238;SDS011;16267;48.194;11.546;2023-12-20T12:07:08;1.17;;;0.63;;
29238;SDS011;16267;48.194;11.546;2023-12-20T12:09:34;1.63;;;0.70;;
29238;SDS011;16267;48.194;11.546;2023-12-20T12:12:00;1.95;;;1.00;;
29238;SDS011;16267;48.194;11.546;2023-12-20T12:14:27;3.20;;;0.80;;
29238;SDS011;16267;48.194;11.546;2023-12-20T12:16:53;1.17;;;0.75;;
29238;SDS011;16267;48.194;11.546;2023-12-20T12:19:19;4.05;;;1.40;;
29238;SDS011;16267;48.194;11.546;2023-12-20T12:21:49;1.52;;;0.70;;
29238;SDS011;16267;48.194;11.546;2023-12-20T12:24:20;1.00;;;0.70;;
29238;SDS011;16267;48.194;11.546;2023-12-20T12:26:51;1.13;;;0.75;;
29238;SDS011;16267;48.194;11.546;2023-12-20T12:29:17;1.90;;;0.70;;
29238;SDS011;16267;48.194;11.546;2023-12-20T12:31:43;2.92;;;1.38;;
29238;SDS011;16267;48.194;11.546;2023-12-20T12:34:09;1.75;;;0.73;;
29238;SDS011;16267;48.194;11.546;2023-12-20T12:36:35;1.25;;;0.85;;
29238;SDS011;16267;48.194;11.546;2023-12-20T12:39:03;5.07;;;2.10;;
29238;SDS011;16267;48.194;11.546;2023-12-20T12:41:30;5.05;;;2.00;;
29238;SDS011;16267;48.194;11.546;2023-12-20T12:43:55;3.70;;;1.80;;
29238;SDS011;16267;48.194;11.546;2023-12-20T12:46:21;1.90;;;1.17;;
29238;SDS011;16267;48.194;11.546;2023-12-20T12:48:47;2.50;;;1.20;;
29238;SDS011;16267;48.194;11.546;2023-12-20T12:51:14;3.28;;;1.23;;
29238;SDS011;16267;48.194;11.546;2023-12-20T12:53:40;1.80;;;1.00;;
29238;SDS011;16267;48.194;11.546;2023-12-20T12:56:06;2.28;;;1.30;;
29238;SDS011;16267;48.194;11.546;2023-12-20T12:58:32;2.25;;;1.48;;
29238;SDS011;16267;48.194;11.546;2023-12-20T13:00:59;2.83;;;1.42;;
29238;SDS011;16267;48.194;11.546;2023-12-20T13:03:24;2.63;;;1.42;;
29238;SDS011;16267;48.194;11.546;2023-12-20T13:05:50;2.28;;;1.05;;
29238;SDS011;16267;48.194;11.546;2023-12-20T13:08:16;2.63;;;1.20;;
29238;SDS011;16267;48.194;11.546;2023-12-20T13:10:42;3.22;;;1.38;;
29238;SDS011;16267;48.194;11.546;2023-12-20T13:13:07;1.42;;;0.98;;
29238;SDS011;16267;48.194;11.546;2023-12-20T13:15:33;2.55;;;1.30;;
29238;SDS011;16267;48.194;11.546;2023-12-20T13:17:59;1.33;;;1.00;;
29238;SDS011;16267;48.194;11.546;2023-12-20T13:20:25;1.58;;;0.98;;
29238;SDS011;16267;48.194;11.546;2023-12-20T13:22:51;1.65;;;0.73;;
29238;SDS011;16267;48.194;11.546;2023-12-20T13:25:16;1.52;;;0.77;;
29238;SDS011;16267;48.194;11.546;2023-12-20T13:27:42;1.17;;;0.70;;
29238;SDS011;16267;48.194;11.546;2023-12-20T13:30:08;1.98;;;0.82;;
29238;SDS011;16267;48.194;11.546;2023-12-20T13:32:35;1.23;;;0.80;;
29238;SDS011;16267;48.194;11.546;2023-12-20T13:35:00;0.95;;;0.70;;
29238;SDS011;16267;48.194;11.546;2023-12-20T13:37:26;1.20;;;0.70;;
29238;SDS011;16267;48.194;11.546;2023-12-20T13:39:52;1.42;;;0.80;;
29238;SDS011;16267;48.194;11.546;2023-12-20T13:42:18;2.70;;;1.33;;
29238;SDS011;16267;48.194;11.546;2023-12-20T13:44:45;1.90;;;1.10;;
29238;SDS011;16267;48.194;11.546;2023-12-20T13:47:11;1.40;;;0.90;;
29238;SDS011;16267;48.194;11.546;2023-12-20T13:52:09;1.55;;;0.80;;
29238;SDS011;16267;48.194;11.546;2023-12-20T13:54:35;2.40;;;0.90;;
29238;SDS011;16267;48.194;11.546;2023-12-20T13:57:04;2.15;;;0.90;;
29238;SDS011;16267;48.194;11.546;2023-12-20T13:59:31;0.85;;;0.70;;
29238;SDS011;16267;48.194;11.546;2023-12-20T14:01:56;3.70;;;0.93;;
29238;SDS011;16267;48.194;11.546;2023-12-20T14:04:22;1.60;;;1.00;;
29238;SDS011;16267;48.194;11.546;2023-12-20T14:06:48;3.15;;;1.13;;
29238;SDS011;16267;48.194;11.546;2023-12-20T14:09:31;3.08;;;1.23;;
29238;SDS011;16267;48.194;11.546;2023-12-20T14:14:22;3.55;;;0.70;;
29238;SDS011;16267;48.194;11.546;2023-12-20T14:16:54;2.65;;;0.82;;
29238;SDS011;16267;48.194;11.546;2023-12-20T14:19:20;1.47;;;0.70;;
29238;SDS011;16267;48.194;11.546;2023-12-20T14:21:46;2.25;;;0.70;;
29238;SDS011;16267;48.194;11.546;2023-12-20T14:24:15;1.42;;;0.90;;
29238;SDS011;16267;48.194;11.546;2023-12-20T14:26:41;1.85;;;0.80;;
29238;SDS011;16267;48.194;11.546;2023-12-20T14:29:07;1.42;;;0.73;;
29238;SDS011;16267;48.194;11.546;2023-12-20T14:31:34;2.03;;;0.68;;
29238;SDS011;16267;48.194;11.546;2023-12-20T14:34:01;1.25;;;0.73;;
29238;SDS011;16267;48.194;11.546;2023-12-20T14:36:29;2.25;;;1.05;;
29238;SDS011;16267;48.194;11.546;2023-12-20T14:39:02;3.00;;;0.98;;
29238;SDS011;16267;48.194;11.546;2023-12-20T14:41:28;1.98;;;0.70;;
29238;SDS011;16267;48.194;11.546;2023-12-20T14:44:08;1.58;;;0.77;;
29238;SDS011;16267;48.194;11.546;2023-12-20T14:46:33;1.27;;;0.50;;
29238;SDS011;16267;48.194;11.546;2023-12-20T14:48:59;4.22;;;0.63;;
29238;SDS011;16267;48.194;11.546;2023-12-20T14:51:27;1.95;;;0.68;;
29238;SDS011;16267;48.194;11.546;2023-12-20T14:54:02;1.17;;;0.60;;
29238;SDS011;16267;48.194;11.546;2023-12-20T14:56:28;1.88;;;0.70;;
29238;SDS011;16267;48.194;11.546;2023-12-20T14:58:54;1.13;;;0.65;;
29238;SDS011;16267;48.194;11.546;2023-12-20T15:01:20;1.88;;;0.88;;
29238;SDS011;16267;48.194;11.546;2023-12-20T15:03:46;2.15;;;1.08;;
29238;SDS011;16267;48.194;11.546;2023-12-20T15:06:13;1.13;;;0.63;;
29238;SDS011;16267;48.194;11.546;2023-12-20T15:08:41;1.50;;;0.70;;
29238;SDS011;16267;48.194;11.546;2023-12-20T15:11:07;2.65;;;0.75;;
29238;SDS011;16267;48.194;11.546;2023-12-20T15:13:36;2.17;;;0.70;;